Time;durP1;ratioP1;P1;durP2;ratioP2;P2;SDS_P1;SDS_P2;PMS_P1;PMS_P2;Temp;Humidity;BMP_temperature;BMP_pressure;BME280_temperature;BME280_humidity;BME280_pressure;Samples;Min_cycle;Max_cycle;Signal;HPM_P1;HPM_P2
2021/06/01 00:00:14;;;;;;;15.40;7.97;;;;;;;10.96;84.32;101877.06;4960429;28;20140;-81
2021/06/01 00:02:40;;;;;;;13.32;8.55;;;;;;;10.98;85.21;101875.13;4976711;28;20039;-81
2021/06/01 00:05:07;;;;;;;11.00;7.50;;;;;;;10.88;84.50;101870.72;4976825;28;20070;-80
2021/06/01 00:07:33;;;;;;;13.95;8.02;;;;;;;10.81;84.07;101867.75;4943576;28;20074;-81
2021/06/01 00:09:58;;;;;;;15.53;8.63;;;;;;;10.83;84.43;101878.31;4958546;28;20073;-81
2021/06/01 00:12:24;;;;;;;12.20;8.90;;;;;;;10.83;84.56;101876.47;4958441;28;20046;-80
2021/06/01 00:14:49;;;;;;;13.27;8.77;;;;;;;10.82;85.45;101874.78;4958664;28;20089;-81
2021/06/01 00:17:15;;;;;;;11.97;7.47;;;;;;;10.74;84.40;101866.59;4942579;28;20297;-80
2021/06/01 00:19:40;;;;;;;8.40;5.83;;;;;;;10.70;83.99;101865.19;4958469;28;20039;-80
2021/06/01 00:22:05;;;;;;;12.40;8.17;;;;;;;10.67;83.87;101865.47;4958379;28;20101;-80
2021/06/01 00:24:34;;;;;;;13.82;8.23;;;;;;;10.67;83.37;101865.47;4974799;28;20063;-81
2021/06/01 00:26:59;;;;;;;14.88;8.52;;;;;;;10.63;84.89;101859.56;4957931;28;20092;-80
2021/06/01 00:29:25;;;;;;;13.50;7.80;;;;;;;10.64;83.92;101865.75;4958331;28;20444;-80
2021/06/01 00:31:50;;;;;;;11.47;6.87;;;;;;;10.55;83.60;101868.22;4958274;28;20042;-80
2021/06/01 00:34:15;;;;;;;13.30;8.13;;;;;;;10.51;83.61;101861.50;4958030;28;20041;-80
2021/06/01 00:36:41;;;;;;;10.20;6.97;;;;;;;10.49;83.37;101858.09;4974733;28;20445;-80
2021/06/01 00:39:06;;;;;;;12.60;8.23;;;;;;;10.52;84.29;101862.31;4957606;28;20031;-80
2021/06/01 00:41:32;;;;;;;15.00;8.73;;;;;;;10.51;84.66;101861.50;4957991;28;20093;-80
2021/06/01 00:43:58;;;;;;;10.65;7.50;;;;;;;10.51;84.87;101856.16;4974923;28;20034;-80
2021/06/01 00:46:23;;;;;;;11.77;7.20;;;;;;;10.46;84.26;101863.69;4974454;28;20070;-80
2021/06/01 00:48:50;;;;;;;13.23;6.90;;;;;;;10.43;84.01;101853.28;4957778;28;20117;-80
2021/06/01 00:51:15;;;;;;;;;;;;;;;10.45;84.48;101856.66;4958192;28;20077;-80
2021/06/01 00:53:41;;;;;;;;;;;;;;;10.44;84.17;101855.00;4974919;28;20344;-80
2021/06/01 00:56:07;;;;;;;11.23;6.60;;;;;;;10.38;83.79;101844.00;4957217;28;20287;-80
2021/06/01 00:58:33;;;;;;;10.15;7.50;;;;;;;10.34;83.88;101846.91;4957547;28;20034;-80
2021/06/01 01:01:17;;;;;;;12.35;7.68;;;;;;;10.33;84.09;101834.56;4957363;28;20104;-79
2021/06/01 01:03:43;;;;;;;12.55;9.05;;;;;;;10.36;85.08;101841.47;4957187;28;20415;-80
2021/06/01 01:06:19;;;;;;;18.20;8.00;;;;;;;10.35;84.86;101843.28;4973428;28;20043;-79
2021/06/01 01:08:54;;;;;;;13.30;8.25;;;;;;;10.36;85.00;101841.47;4973925;28;20038;-80
2021/06/01 01:11:36;;;;;;;15.35;9.13;;;;;;;10.37;85.88;101842.28;4956910;28;20057;-80
2021/06/01 01:14:13;;;;;;;12.63;9.43;;;;;;;10.37;86.07;101845.81;4973732;28;20038;-80
2021/06/01 01:16:44;;;;;;;15.40;8.40;;;;;;;10.41;86.69;101844.56;4956003;28;20468;-79
2021/06/01 01:19:15;;;;;;;15.45;10.23;;;;;;;10.48;87.33;101850.22;4955928;28;20452;-80
2021/06/01 01:21:47;;;;;;;12.55;8.98;;;;;;;10.45;86.85;101846.00;4956719;28;20407;-79
2021/06/01 01:24:50;;;;;;;15.55;9.45;;;;;;;10.44;86.61;101849.66;4973437;28;20030;-80
2021/06/01 01:27:53;;;;;;;13.30;8.65;;;;;;;10.48;87.62;101844.88;4956146;28;20043;-80
2021/06/01 01:30:19;;;;;;;16.52;9.75;;;;;;;10.44;87.11;101849.66;4973477;28;20038;-79
2021/06/01 01:32:47;;;;;;;16.35;9.77;;;;;;;10.45;87.23;101850.50;4973625;28;20469;-80
2021/06/01 01:35:14;;;;;;;15.73;10.00;;;;;;;10.36;86.67;101849.47;4973338;28;20368;-79
2021/06/01 01:37:40;;;;;;;18.00;9.57;;;;;;;10.30;86.53;101844.66;4956166;28;20046;-80
2021/06/01 01:40:08;;;;;;;15.07;9.60;;;;;;;10.36;87.64;101844.13;4973562;28;20361;-80
2021/06/01 01:42:46;;;;;;;19.15;9.30;;;;;;;10.35;87.41;101845.13;4956485;28;20051;-80
2021/06/01 01:45:19;;;;;;;18.48;9.15;;;;;;;10.30;87.38;101847.31;4973519;28;20031;-79
2021/06/01 01:50:18;;;;;;;12.60;7.88;;;;;;;10.20;86.69;101836.56;4972633;28;20038;-79
2021/06/01 01:52:44;;;;;;;14.05;8.50;;;;;;;10.15;85.89;101836.97;4956081;28;20041;-80
2021/06/01 01:55:11;;;;;;;12.57;8.45;;;;;;;10.13;85.92;101830.91;4956140;28;20113;-79
2021/06/01 01:57:38;;;;;;;13.80;8.63;;;;;;;10.10;85.80;101825.03;4973008;28;20418;-79
2021/06/01 02:00:08;;;;;;;12.18;8.43;;;;;;;10.11;85.98;101832.91;4973071;28;20453;-80
2021/06/01 02:02:35;;;;;;;12.77;7.80;;;;;;;10.10;86.01;101825.03;4973079;28;20520;-79
2021/06/01 02:05:02;;;;;;;12.25;8.57;;;;;;;10.14;86.64;101821.13;4940049;28;20031;-80
2021/06/01 02:07:31;;;;;;;15.68;7.80;;;;;;;10.13;86.47;101822.91;4972724;28;20495;-79
2021/06/01 02:09:56;;;;;;;16.63;9.35;;;;;;;10.15;87.16;101820.13;4973115;28;20038;-79
2021/06/01 02:12:22;;;;;;;16.20;10.70;;;;;;;10.15;87.70;101818.28;4940014;28;20150;-79
2021/06/01 02:14:47;;;;;;;12.73;8.30;;;;;;;10.17;87.79;101825.34;4955950;28;20038;-79
2021/06/01 02:17:13;;;;;;;15.43;8.67;;;;;;;10.07;86.79;101819.97;4955581;28;20030;-80
2021/06/01 02:19:38;;;;;;;12.00;8.23;;;;;;;10.00;86.59;101819.63;4955939;28;20101;-79
2021/06/01 02:22:38;;;;;;;15.17;8.33;;;;;;;10.00;87.28;101808.97;4973068;28;20098;-79
2021/06/01 02:25:14;;;;;;;12.93;9.10;;;;;;;9.98;86.90;101812.75;4955926;28;20477;-79
2021/06/01 02:28:05;;;;;;;19.17;10.55;;;;;;;10.03;87.86;101813.19;4939659;28;20047;-78
2021/06/01 02:30:46;;;;;;;11.05;8.18;;;;;;;10.02;87.02;101815.03;4972689;28;20449;-79
2021/06/01 02:33:12;;;;;;;16.92;8.65;;;;;;;10.01;86.81;101820.47;4955395;28;20034;-79
2021/06/01 02:35:40;;;;;;;16.38;9.25;;;;;;;10.00;86.92;101818.81;4972384;28;20049;-79
2021/06/01 02:38:07;;;;;;;19.10;11.13;;;;;;;10.04;88.12;101812.19;4955152;28;20050;-79
2021/06/01 02:40:35;;;;;;;13.25;9.18;;;;;;;10.03;87.33;101815.88;4955428;28;20081;-79
2021/06/01 02:43:07;;;;;;;17.00;10.73;;;;;;;10.04;88.60;101813.03;4939676;28;20051;-79
2021/06/01 02:45:36;;;;;;;22.25;10.40;;;;;;;10.03;88.55;101814.03;4955640;28;20035;-79
2021/06/01 02:48:03;;;;;;;15.68;10.63;;;;;;;9.96;88.71;101815.53;4955232;28;20035;-79
2021/06/01 02:50:29;;;;;;;19.67;11.50;;;;;;;9.91;88.32;101820.44;4939385;28;20531;-78
2021/06/01 02:52:56;;;;;;;17.33;10.50;;;;;;;9.87;88.16;101819.00;4972462;28;20130;-79
2021/06/01 02:55:22;;;;;;;18.85;10.10;;;;;;;9.82;88.04;101819.38;4955346;28;20468;-79
2021/06/01 02:57:48;;;;;;;16.63;10.02;;;;;;;9.78;87.66;101819.78;4938924;28;20042;-79
2021/06/01 03:00:17;;;;;;;18.85;10.52;;;;;;;9.75;87.36;101814.72;4939311;28;20039;-79
2021/06/01 03:02:42;;;;;;;19.63;10.98;;;;;;;9.78;88.19;101819.78;4973790;28;20346;-79
2021/06/01 03:05:09;;;;;;;22.67;11.63;;;;;;;9.74;87.75;101819.22;4975511;28;20054;-79
2021/06/01 03:07:37;;;;;;;17.70;10.32;;;;;;;9.71;87.34;101806.13;4958480;28;20380;-80
2021/06/01 03:10:05;;;;;;;15.77;10.68;;;;;;;9.73;87.25;101807.69;4958624;28;20030;-79
2021/06/01 03:14:56;;;;;;;21.23;10.80;;;;;;;9.82;88.12;101813.22;4958578;28;20031;-79
2021/06/01 03:17:21;;;;;;;16.00;10.83;;;;;;;9.80;87.49;101823.16;4958053;28;20468;-79
2021/06/01 03:19:46;;;;;;;21.40;11.97;;;;;;;9.77;87.68;101810.94;4958295;28;20487;-79
2021/06/01 03:22:12;;;;;;;16.90;10.93;;;;;;;9.77;87.53;101804.78;4975382;28;20445;-79
2021/06/01 03:24:37;;;;;;;20.30;10.80;;;;;;;9.80;87.75;101796.50;4958455;28;20378;-79
2021/06/01 03:27:03;;;;;;;20.33;11.53;;;;;;;9.78;88.15;101798.44;4957987;28;20529;-79
2021/06/01 03:29:29;;;;;;;16.15;9.85;;;;;;;9.81;87.83;101793.72;4958116;28;20412;-79
2021/06/01 03:31:55;;;;;;;16.85;10.15;;;;;;;9.81;87.18;101795.50;4958029;28;20049;-79
2021/06/01 03:34:22;;;;;;;18.17;10.38;;;;;;;9.85;87.17;101799.59;4957848;28;20039;-79
2021/06/01 03:36:47;;;;;;;18.67;11.85;;;;;;;9.90;87.41;101800.91;4974736;28;20101;-79
2021/06/01 03:39:13;;;;;;;18.40;10.73;;;;;;;9.93;86.93;101797.13;4957940;28;20038;-78
2021/06/01 03:41:39;;;;;;;18.70;12.53;;;;;;;9.99;87.34;101793.91;4958002;28;20293;-78
2021/06/01 03:44:04;;;;;;;23.02;11.65;;;;;;;10.01;86.77;101799.13;4974978;28;20042;-79
2021/06/01 03:46:29;;;;;;;15.47;10.73;;;;;;;10.03;86.86;101791.84;4974607;28;20022;-79
2021/06/01 03:48:55;;;;;;;17.70;11.30;;;;;;;10.12;87.40;101794.56;4957785;28;20038;-79
2021/06/01 03:51:20;;;;;;;14.33;10.07;;;;;;;10.14;86.75;101794.44;4974689;28;20062;-79
2021/06/01 03:53:47;;;;;;;17.20;10.60;;;;;;;10.19;86.46;101796.69;4974651;28;20035;-78
2021/06/01 03:56:14;;;;;;;15.55;10.27;;;;;;;10.23;86.38;101792.75;4974238;28;20373;-79
2021/06/01 03:58:39;;;;;;;14.93;10.65;;;;;;;10.28;86.05;101798.56;4974659;28;20043;-79
2021/06/01 04:01:05;;;;;;;16.60;10.77;;;;;;;10.37;86.60;101808.44;4974780;28;20045;-79
2021/06/01 04:03:31;;;;;;;18.27;10.67;;;;;;;10.43;86.22;101801.72;4974340;28;20349;-79
2021/06/01 04:05:57;;;;;;;15.35;10.32;;;;;;;10.48;86.00;101803.00;4974065;28;20058;-79
2021/06/01 04:08:22;;;;;;;19.97;12.07;;;;;;;10.55;85.86;101804.13;4941233;28;20061;-79
2021/06/01 04:10:47;;;;;;;16.57;10.37;;;;;;;10.63;86.11;101799.94;4957594;28;20047;-79
2021/06/01 04:13:12;;;;;;;17.07;9.70;;;;;;;10.69;85.65;101802.06;4973844;28;20031;-79
2021/06/01 04:15:38;;;;;;;14.63;9.30;;;;;;;10.77;85.88;101803.06;4957278;28;20495;-79
2021/06/01 04:18:03;;;;;;;19.47;10.93;;;;;;;10.87;85.74;101803.09;4973870;28;20436;-79
2021/06/01 04:20:29;;;;;;;17.53;9.90;;;;;;;10.97;85.99;101801.25;4957270;28;20376;-79
2021/06/01 04:22:54;;;;;;;14.43;10.00;;;;;;;11.12;86.41;101795.50;4974108;28;20452;-79
2021/06/01 04:25:19;;;;;;;17.80;11.13;;;;;;;11.16;85.99;101797.75;4974166;28;20030;-79
2021/06/01 04:27:45;;;;;;;18.30;10.63;;;;;;;11.29;86.22;101786.78;4973769;28;20037;-79
2021/06/01 04:30:11;;;;;;;16.00;9.57;;;;;;;11.45;85.96;101794.25;4941032;28;20125;-80
2021/06/01 04:32:37;;;;;;;;;;;;;;;11.58;85.85;101793.91;4957469;28;20544;-80
2021/06/01 04:35:02;;;;;;;;;;;;;;;11.73;85.90;101789.81;4974237;28;20008;-79
2021/06/01 04:37:28;;;;;;;16.17;10.47;;;;;;;11.81;86.23;101797.94;4956525;28;19918;-79
2021/06/01 04:39:54;;;;;;;13.93;8.97;;;;;;;11.88;86.28;101787.56;4956982;28;20043;-79
2021/06/01 04:42:20;;;;;;;21.40;11.80;;;;;;;11.96;86.13;101785.00;4973845;28;20063;-80
2021/06/01 04:44:46;;;;;;;20.23;10.70;;;;;;;12.08;86.09;101793.69;4973642;28;20479;-79
2021/06/01 04:47:11;;;;;;;18.47;9.87;;;;;;;12.18;86.13;101789.13;4973297;28;20046;-79
2021/06/01 04:49:36;;;;;;;16.23;10.77;;;;;;;12.27;85.91;101786.53;4973498;28;20044;-79
2021/06/01 04:52:02;;;;;;;18.63;11.93;;;;;;;12.32;86.08;101792.31;4956875;28;20069;-79
2021/06/01 04:54:28;;;;;;;21.67;11.50;;;;;;;12.36;85.68;101791.88;4973475;28;20026;-78
2021/06/01 04:56:53;;;;;;;17.07;10.43;;;;;;;12.38;85.84;101783.69;4956214;28;20696;-79
2021/06/01 04:59:18;;;;;;;13.93;9.97;;;;;;;12.43;85.67;101787.59;4956501;28;20046;-79
2021/06/01 05:01:44;;;;;;;24.53;12.97;;;;;;;12.42;85.26;101782.41;4973220;28;20031;-79
2021/06/01 05:04:09;;;;;;;17.13;10.93;;;;;;;12.44;85.37;101789.28;4973230;28;20480;-80
2021/06/01 05:06:34;;;;;;;16.60;11.43;;;;;;;12.49;85.65;101791.50;4956256;28;20441;-79
2021/06/01 05:09:02;;;;;;;20.93;11.47;;;;;;;12.51;85.96;101788.69;4973199;28;20049;-79
2021/06/01 05:11:29;;;;;;;18.10;11.68;;;;;;;12.55;86.15;101788.25;4973221;28;20043;-80
2021/06/01 05:13:54;;;;;;;;;;;;;;;12.67;86.20;101794.25;4940588;28;20452;-80
2021/06/01 05:16:19;;;;;;;19.87;10.97;;;;;;;12.78;85.50;101788.66;4939934;28;19997;-79
2021/06/01 05:18:45;;;;;;;18.27;11.23;;;;;;;12.85;84.95;101786.19;4956041;28;20289;-78
2021/06/01 05:21:10;;;;;;;17.10;11.07;;;;;;;12.97;84.21;101790.38;4973415;28;20412;-79
2021/06/01 05:23:36;;;;;;;15.97;11.03;;;;;;;13.17;84.02;101783.00;4956182;28;20433;-78
2021/06/01 05:26:03;;;;;;;16.02;9.80;;;;;;;13.33;82.83;101779.66;4954972;28;20031;-79
2021/06/01 05:28:29;;;;;;;17.17;8.82;;;;;;;13.50;78.70;101781.44;4973441;28;20484;-79
2021/06/01 05:33:34;;;;;;;13.05;8.98;;;;;;;14.30;76.30;101786.59;4972720;28;20042;-80
2021/06/01 05:36:00;;;;;;;13.85;8.65;;;;;;;14.31;71.77;101787.47;4955792;28;20074;-79
2021/06/01 05:38:32;;;;;;;17.30;9.25;;;;;;;14.47;70.32;101776.78;4956087;28;20137;-79
2021/06/01 05:40:59;;;;;;;13.48;8.15;;;;;;;14.51;71.16;101779.94;4956249;28;20110;-80
2021/06/01 05:43:25;;;;;;;15.25;7.32;;;;;;;14.59;69.03;101782.72;4972896;28;20448;-79
2021/06/01 05:45:51;;;;;;;11.50;7.22;;;;;;;14.86;71.94;101783.44;4955864;28;20042;-80
2021/06/01 05:48:16;;;;;;;11.30;6.80;;;;;;;15.13;68.07;101791.22;4955925;28;20042;-79
2021/06/01 05:50:42;;;;;;;11.43;6.30;;;;;;;15.45;66.04;101778.75;4956143;28;20046;-79
2021/06/01 05:53:09;;;;;;;11.50;6.22;;;;;;;15.35;65.02;101778.09;4956154;28;20046;-79
2021/06/01 05:55:34;;;;;;;;;;;;;;;15.73;64.13;101781.09;4956873;28;20070;-82
2021/06/01 05:58:00;;;;;;;;;;;;;;;16.09;66.24;101781.53;4957067;28;19968;-82
2021/06/01 06:00:27;;;;;;;10.20;5.73;;;;;;;16.41;61.39;101785.94;4956572;28;19921;-82
2021/06/01 06:02:53;;;;;;;9.18;5.63;;;;;;;16.66;59.49;101783.94;4973888;28;20027;-83
2021/06/01 06:05:18;;;;;;;6.90;5.22;;;;;;;16.85;59.70;101787.22;4955846;28;20785;-81
2021/06/01 06:07:44;;;;;;;6.93;5.43;;;;;;;17.07;57.67;101780.19;4972393;28;20069;-79
2021/06/01 06:10:10;;;;;;;7.67;5.60;;;;;;;17.20;57.63;101791.19;4956223;28;20027;-82
2021/06/01 06:12:36;;;;;;;9.40;4.88;;;;;;;17.48;56.36;101783.34;4956539;28;20031;-82
2021/06/01 06:15:04;;;;;;;10.10;5.53;;;;;;;17.54;55.37;101783.69;4940530;28;20350;-82
2021/06/01 06:17:43;;;;;;;7.90;5.78;;;;;;;17.49;57.56;101781.53;4956425;28;20050;-81
2021/06/01 06:20:10;;;;;;;7.55;4.97;;;;;;;17.59;54.82;101778.56;4972709;28;20039;-81
2021/06/01 06:22:36;;;;;;;;;;;;;;;17.65;55.48;101781.38;4956488;28;20443;-81
2021/06/01 06:25:03;;;;;;;7.65;5.50;;;;;;;17.39;55.74;101783.63;4972942;28;20332;-80
2021/06/01 06:27:29;;;;;;;6.88;5.18;;;;;;;17.49;55.67;101773.44;4939787;28;20094;-82
2021/06/01 06:29:54;;;;;;;9.20;6.23;;;;;;;17.11;56.52;101781.47;4973140;28;20453;-81
2021/06/01 06:32:20;;;;;;;11.57;6.23;;;;;;;17.06;57.08;101783.88;4955910;28;20035;-80
2021/06/01 06:34:45;;;;;;;9.33;5.30;;;;;;;16.95;57.83;101778.91;4955239;28;20039;-80
2021/06/01 06:37:11;;;;;;;8.43;5.30;;;;;;;16.99;54.23;101782.94;4974332;28;20051;-80
2021/06/01 06:39:36;;;;;;;8.13;5.38;;;;;;;17.00;54.73;101782.75;4976076;28;20057;-79
2021/06/01 06:42:02;;;;;;;10.17;5.13;;;;;;;17.15;55.58;101785.50;4975957;28;20109;-79
2021/06/01 06:44:27;;;;;;;10.90;6.22;;;;;;;17.18;56.92;101787.00;4958914;28;20039;-80
2021/06/01 06:47:18;;;;;;;8.07;5.63;;;;;;;17.13;53.98;101779.44;4975513;28;20035;-80
2021/06/01 06:49:44;;;;;;;7.60;5.28;;;;;;;16.99;55.01;101778.38;4958939;28;20354;-79
2021/06/01 06:52:11;;;;;;;8.43;5.10;;;;;;;16.98;55.82;101782.09;4958945;28;20037;-79
2021/06/01 06:54:37;;;;;;;11.48;5.68;;;;;;;16.96;54.51;101772.50;4958779;28;20448;-79
2021/06/01 06:57:03;;;;;;;9.30;5.55;;;;;;;16.98;55.49;101770.47;4958535;28;20053;-79
2021/06/01 06:59:29;;;;;;;11.30;5.50;;;;;;;16.86;55.80;101762.78;4958726;28;20065;-79
2021/06/01 07:01:54;;;;;;;9.03;4.93;;;;;;;16.81;57.51;101767.88;4976003;28;20038;-80
2021/06/01 07:04:19;;;;;;;8.97;4.20;;;;;;;16.95;57.11;101771.69;4958954;28;20038;-80
2021/06/01 07:06:48;;;;;;;5.30;4.33;;;;;;;16.94;57.69;101769.97;4975115;28;20034;-80
2021/06/01 07:09:14;;;;;;;9.55;4.47;;;;;;;17.12;54.44;101772.38;4958307;28;20950;-80
2021/06/01 07:11:40;;;;;;;7.43;4.28;;;;;;;17.17;55.95;101763.75;4974704;28;20453;-80
2021/06/01 07:14:09;;;;;;;5.57;3.92;;;;;;;17.40;54.31;101763.72;4975043;28;20101;-80
2021/06/01 07:16:34;;;;;;;5.72;3.58;;;;;;;17.33;55.14;101760.06;4974617;28;20145;-80
2021/06/01 07:19:00;;;;;;;6.60;4.43;;;;;;;17.49;54.23;101762.63;4958129;28;20109;-80
2021/06/01 07:21:25;;;;;;;4.90;3.43;;;;;;;17.61;52.38;101763.00;4975345;28;20034;-80
2021/06/01 07:23:50;;;;;;;3.80;3.03;;;;;;;17.73;52.07;101765.06;4942623;28;20096;-80
2021/06/01 07:26:16;;;;;;;3.47;2.70;;;;;;;18.27;49.48;101763.13;4975189;28;20050;-81
2021/06/01 07:28:41;;;;;;;5.70;2.67;;;;;;;18.79;47.10;101761.25;4975406;28;20469;-80
2021/06/01 07:31:07;;;;;;;3.90;2.60;;;;;;;19.31;44.83;101760.91;4975502;28;20372;-81
2021/06/01 07:33:33;;;;;;;6.60;2.50;;;;;;;19.90;43.47;101748.00;4975741;28;20039;-81
2021/06/01 07:35:59;;;;;;;2.38;2.03;;;;;;;19.76;38.53;101758.78;4958502;28;20085;-82
2021/06/01 07:38:24;;;;;;;2.40;1.98;;;;;;;20.10;39.16;101759.78;4975829;28;20456;-81
2021/06/01 07:40:50;;;;;;;3.20;2.03;;;;;;;20.30;38.84;101761.75;4975644;28;20468;-81
2021/06/01 07:43:15;;;;;;;3.33;1.93;;;;;;;20.72;39.30;101747.13;4942598;28;20073;-81
2021/06/01 07:45:41;;;;;;;3.07;1.97;;;;;;;21.24;35.67;101748.22;4958590;28;20030;-81
2021/06/01 07:48:06;;;;;;;2.57;1.60;;;;;;;21.41;35.41;101750.53;4974182;28;20640;-81
2021/06/01 07:50:32;;;;;;;2.45;1.70;;;;;;;22.00;32.16;101751.47;4974932;28;20070;-82
2021/06/01 07:52:57;;;;;;;3.00;1.53;;;;;;;21.92;30.04;101742.50;4942571;28;20075;-82
2021/06/01 07:55:23;;;;;;;2.27;1.50;;;;;;;22.14;27.51;101743.03;4958203;28;20342;-82
2021/06/01 07:57:48;;;;;;;4.30;1.40;;;;;;;22.10;27.70;101738.22;4957881;28;20053;-82
2021/06/01 08:00:14;;;;;;;2.13;1.63;;;;;;;22.24;30.66;101747.22;4975265;28;20035;-83
2021/06/01 08:02:40;;;;;;;4.00;1.48;;;;;;;21.80;29.19;101737.94;4975327;28;20034;-82
2021/06/01 08:05:06;;;;;;;3.40;1.50;;;;;;;21.83;28.22;101724.75;4975348;28;20026;-82
2021/06/01 08:07:33;;;;;;;2.97;1.65;;;;;;;21.35;28.19;101730.44;4974679;28;20350;-82
2021/06/01 08:09:59;;;;;;;4.15;1.90;;;;;;;21.16;28.49;101728.56;4958391;28;20046;-82
2021/06/01 08:12:24;;;;;;;1.92;1.52;;;;;;;20.55;29.00;101726.78;4958407;28;20368;-82
2021/06/01 08:14:52;;;;;;;4.00;1.58;;;;;;;20.81;29.63;101720.59;4958110;28;20081;-82
2021/06/01 08:17:17;;;;;;;3.20;1.75;;;;;;;21.35;28.38;101727.72;4973783;28;20041;-82
2021/06/01 08:19:45;;;;;;;5.00;1.67;;;;;;;21.61;28.36;101720.59;4941199;28;20545;-83
2021/06/01 08:22:29;;;;;;;2.50;1.40;;;;;;;21.76;29.98;101709.50;4956933;28;20031;-82
2021/06/01 08:24:55;;;;;;;4.97;1.42;;;;;;;21.99;30.61;101714.47;4974465;28;20513;-82
2021/06/01 08:27:20;;;;;;;4.27;1.50;;;;;;;22.93;26.62;101708.28;4974900;28;20121;-82
2021/06/01 08:29:45;;;;;;;4.23;2.20;;;;;;;22.36;28.76;101712.00;4958600;28;20054;-83
2021/06/01 08:32:11;;;;;;;2.83;2.00;;;;;;;22.64;30.97;101712.47;4974764;28;20100;-83
2021/06/01 08:34:36;;;;;;;4.73;1.50;;;;;;;23.27;27.91;101713.47;4957641;28;20046;-80
2021/06/01 08:37:02;;;;;;;1.97;1.57;;;;;;;22.87;26.74;101713.78;4975240;28;20041;-82
2021/06/01 08:39:27;;;;;;;3.07;1.60;;;;;;;22.76;28.48;101718.88;4975649;28;20066;-81
2021/06/01 08:41:54;;;;;;;3.93;1.67;;;;;;;22.69;31.17;101709.94;4942348;28;20031;-83
2021/06/01 08:44:20;;;;;;;5.78;2.00;;;;;;;23.43;29.67;101712.91;4958713;28;20041;-82
2021/06/01 08:46:50;;;;;;;3.08;1.80;;;;;;;23.31;30.93;101715.53;4975240;28;20110;-82
2021/06/01 08:49:17;;;;;;;4.13;1.77;;;;;;;23.01;28.40;101712.66;4958463;28;20457;-82
2021/06/01 08:51:43;;;;;;;1.70;1.13;;;;;;;22.87;29.01;101709.16;4975141;28;20035;-83
2021/06/01 08:54:09;;;;;;;1.40;1.30;;;;;;;23.42;29.63;101705.78;4974834;28;20034;-82
2021/06/01 08:56:35;;;;;;;2.60;1.80;;;;;;;23.94;29.58;101703.56;4974667;28;20039;-83
2021/06/01 08:59:00;;;;;;;6.50;1.90;;;;;;;25.04;28.00;101707.88;4957843;28;20113;-84
2021/06/01 09:01:25;;;;;;;2.63;2.07;;;;;;;24.99;27.71;101704.22;4957756;28;20062;-82
2021/06/01 09:03:54;;;;;;;2.10;1.67;;;;;;;24.73;28.49;101706.31;4974600;28;20471;-82
2021/06/01 09:06:23;;;;;;;2.42;1.20;;;;;;;25.31;27.66;101710.22;4974283;28;20066;-82
2021/06/01 09:11:39;;;;;;;2.50;1.13;;;;;;;26.16;27.59;101697.00;4974251;28;20046;-82
2021/06/01 09:22:28;;;;;;;30.23;8.88;;;;;;;26.28;25.69;101700.53;4973792;28;20101;-83
2021/06/01 09:25:17;;;;;;;15.20;3.55;;;;;;;25.80;26.20;101701.69;4941037;28;20073;-82
2021/06/01 09:27:53;;;;;;;17.67;4.97;;;;;;;25.88;25.66;101706.84;4956838;28;20049;-82
2021/06/01 09:30:40;;;;;;;11.82;3.17;;;;;;;26.16;26.06;101702.47;4957090;28;20121;-84
2021/06/01 09:33:09;;;;;;;5.88;2.00;;;;;;;25.83;24.53;101704.78;4957068;28;20035;-82
2021/06/01 09:35:53;;;;;;;3.70;1.00;;;;;;;25.72;23.35;101696.63;4957229;28;20039;-85
2021/06/01 09:38:23;;;;;;;2.80;1.10;;;;;;;25.57;20.84;101694.41;4957575;28;20050;-85
2021/06/01 09:41:09;;;;;;;3.10;1.10;;;;;;;25.91;20.53;101700.88;4957199;28;20043;-82
2021/06/01 09:43:53;;;;;;;1.75;0.98;;;;;;;26.36;20.23;101697.38;4941512;28;20097;-84
2021/06/01 09:46:21;;;;;;;1.63;0.98;;;;;;;25.61;21.02;101701.84;4973972;28;20041;-84
2021/06/01 09:48:48;;;;;;;1.52;1.00;;;;;;;26.06;20.83;101698.47;4957012;28;20030;-84
2021/06/01 09:51:24;;;;;;;2.97;1.30;;;;;;;25.89;22.26;101698.41;4957210;28;20849;-83
2021/06/01 09:53:52;;;;;;;;;;;;;;;26.34;22.96;101707.75;4957571;28;20125;-84
2021/06/01 09:56:18;;;;;;;3.67;1.30;;;;;;;26.41;19.33;101700.22;4973937;28;20335;-84
2021/06/01 09:58:44;;;;;;;2.90;0.90;;;;;;;25.86;22.29;101695.28;4974156;28;20049;-84
2021/06/01 10:01:09;;;;;;;1.40;0.90;;;;;;;26.68;21.33;101699.63;4941343;28;20039;-83
2021/06/01 10:03:47;;;;;;;1.03;0.77;;;;;;;26.90;20.22;101689.63;4974165;28;20093;-84
2021/06/01 10:06:13;;;;;;;1.08;0.80;;;;;;;26.47;18.57;101692.94;4957174;28;20045;-84
2021/06/01 10:08:48;;;;;;;2.70;0.80;;;;;;;26.72;20.21;101689.84;4957412;28;20038;-84
2021/06/01 10:11:14;;;;;;;3.65;0.90;;;;;;;26.21;18.06;101695.19;4958062;28;20452;-85
2021/06/01 10:13:41;;;;;;;3.20;1.00;;;;;;;25.63;19.28;101690.69;4960999;28;20046;-85
2021/06/01 10:16:19;;;;;;;2.28;1.27;;;;;;;26.30;18.27;101692.91;4977390;28;20042;-82
2021/06/01 10:18:45;;;;;;;1.77;0.60;;;;;;;25.72;16.36;101691.16;4960873;28;20434;-83
2021/06/01 10:21:18;;;;;;;1.08;0.80;;;;;;;25.81;17.22;101695.16;4960940;28;20042;-84
2021/06/01 10:23:44;;;;;;;0.70;0.70;;;;;;;25.76;18.92;101703.28;4978128;28;20057;-85
2021/06/01 10:26:13;;;;;;;0.60;0.60;;;;;;;25.41;17.10;101693.22;4977858;28;20082;-84
2021/06/01 10:28:42;;;;;;;0.98;0.88;;;;;;;26.38;18.33;101684.28;4961008;28;20035;-84
2021/06/01 10:31:10;;;;;;;1.27;0.68;;;;;;;25.74;16.24;101689.81;4963070;28;20035;-84
2021/06/01 10:33:45;;;;;;;2.95;0.80;;;;;;;25.81;15.96;101692.44;4970381;28;20038;-85
2021/06/01 10:52:24;;;;;;;1.40;0.80;;;;;;;27.43;14.49;101678.38;4977418;28;20419;-88
2021/06/01 10:54:55;;;;;;;2.80;0.77;;;;;;;27.33;15.42;101679.88;4977420;28;20046;-87
2021/06/01 10:57:20;;;;;;;2.83;0.90;;;;;;;26.97;13.15;101674.91;4977129;28;20724;-87
2021/06/01 11:02:24;;;;;;;1.58;0.70;;;;;;;26.72;17.12;101666.03;4977304;28;20093;-88
2021/06/01 11:05:18;;;;;;;0.73;0.63;;;;;;;27.29;14.68;101667.75;4976556;28;20042;-88
2021/06/01 11:07:53;;;;;;;1.85;0.88;;;;;;;27.34;14.09;101664.25;4960301;28;20042;-88
2021/06/01 11:10:43;;;;;;;1.58;0.93;;;;;;;27.06;14.46;101667.91;4977219;28;20030;-89
2021/06/01 11:13:10;;;;;;;0.90;0.70;;;;;;;27.12;17.33;101664.19;4964023;28;20101;-88
2021/06/01 11:15:40;;;;;;;1.02;0.73;;;;;;;26.11;13.91;101656.69;4977166;28;20050;-88
2021/06/01 11:18:13;;;;;;;1.52;0.70;;;;;;;25.80;13.19;101649.72;4976257;28;20034;-88
2021/06/01 11:21:03;;;;;;;1.52;0.73;;;;;;;25.91;13.45;101654.38;4960114;28;20097;-88
2021/06/01 11:23:40;;;;;;;1.27;0.70;;;;;;;25.85;15.90;101644.38;4975769;28;20042;-88
2021/06/01 11:32:49;;;;;;;0.60;0.60;;;;;;;26.72;14.53;101652.31;4976880;28;20038;-87
2021/06/01 11:34:36;;;;;;;0.90;0.80;;;;;;;26.26;12.84;101647.94;4976627;28;20035;-87
2021/06/01 11:37:02;;;;;;;0.57;0.57;;;;;;;26.76;12.29;101649.09;4959723;28;20062;-87
2021/06/01 11:39:47;;;;;;;1.42;0.80;;;;;;;25.65;16.54;101647.53;4975909;28;20101;-86
2021/06/01 11:45:01;;;;;;;1.65;0.70;;;;;;;26.47;16.41;101646.38;4976545;28;20042;-85
2021/06/01 11:47:41;;;;;;;1.23;1.13;;;;;;;26.09;14.47;101645.16;4975523;28;20073;-86
2021/06/01 11:52:56;;;;;;;0.82;0.80;;;;;;;26.32;16.83;101646.94;4975557;28;20364;-87
2021/06/01 11:55:22;;;;;;;2.45;1.10;;;;;;;25.28;15.33;101651.38;4975819;28;20093;-86
2021/06/01 12:02:02;;;;;;;;;;;;;;;25.37;17.60;101642.81;4976620;28;20046;-85
2021/06/01 12:03:57;;;;;;;1.77;0.98;;;;;;;24.97;14.83;101651.72;4975976;28;20090;-86
2021/06/01 12:11:14;;;;;;;0.50;0.50;;;;;;;24.21;16.12;101649.50;4975127;28;20030;-84
2021/06/01 12:12:10;;;;;;;0.73;0.70;;;;;;;24.00;13.54;101650.84;4975082;28;20056;-86
2021/06/01 12:17:48;;;;;;;0.82;0.55;;;;;;;23.07;13.95;101642.84;4974654;28;20043;-87
2021/06/01 12:20:14;;;;;;;2.20;0.60;;;;;;;23.52;14.30;101640.69;4975883;28;20042;-85
2021/06/01 12:22:40;;;;;;;1.75;0.90;;;;;;;23.66;16.13;101643.28;4974995;28;20039;-82
2021/06/01 12:25:09;;;;;;;0.87;0.60;;;;;;;23.22;15.38;101646.03;4975058;28;20062;-84